• Join FlightAware (Why Join?)
  • Login
  • US Flag 
06:46AM EDT


 

Airport Tracker/Info


-or-


 

Live Flight TrackerFlight Track Log ✈ KLM960 ✈ 18-Aug-2014 ✈ EGNT / NCL - EHAM / AMS

Flight Track Log - Related Links

Times and Time Zones

All times are in EDT time to prevent confusion due to time zone crossing. See the KLM960 flight status page for this flight to view local times or setup timezone preferences in your user account.

Time Position Orientation Groundspeed Altitude Reporting Facility
EDT Latitude Longitude Course Direction KTS MPH feet Rate Location/Type
08:20AM 55.0148 -1.7603 195° South 174 200 2,600  Level FlightAware UK
08:21AM 54.9961 -1.7690 195° South 174 200 2,700 2,880 Climbing FlightAware UK
08:22AM 54.8911 -1.7667 179° South 274 315 8,100 3,240 Climbing FlightAware UK
08:22AM 54.8740 -1.7389 137° Southeast 282 325 8,900 2,460 Climbing FlightAware UK
08:23AM 54.8550 -1.7110 140° Southeast 302 348 9,600 2,580 Climbing FlightAware UK
08:23AM 54.8218 -1.6638 141° Southeast 322 371 11,000 2,700 Climbing FlightAware UK
08:24AM 54.7860 -1.6127 141° Southeast 336 387 12,300 2,580 Climbing FlightAware UK
08:24AM 54.7503 -1.5577 138° Southeast 350 403 13,600 2,820 Climbing FlightAware UK
08:25AM 54.6940 -1.4603 135° Southeast 360 414 16,000 2,760 Climbing FlightAware UK
08:26AM 54.6365 -1.3601 135° Southeast 376 433 18,100 2,520 Climbing FlightAware UK
08:26AM 54.5966 -1.3018 140° Southeast 380 437 19,300 2,460 Climbing FlightAware UK
08:28AM 54.4848 -1.1628 144° Southeast 396 456 22,600 2,340 Climbing FlightAware UK
08:28AM 54.4461 -1.0955 135° Southeast 402 463 23,600 1,860 Climbing FlightAware UK
08:29AM 54.4021 -1.0350 141° Southeast 410 472 24,500 1,800 Climbing FlightAware UK
08:30AM 54.2921 -0.8880 142° Southeast 422 486 26,700 1,800 Climbing FlightAware UK
08:30AM 54.2363 -0.8133 142° Southeast 428 493 27,800 1,500 Climbing FlightAware UK
08:31AM 54.1507 -0.6988 142° Southeast 438 504 29,000 1,380 Climbing FlightAware UK
08:32AM 54.1027 -0.6349 142° Southeast 442 509 29,800 1,080 Climbing FlightAware UK
08:33AM 53.9753 -0.4660 142° Southeast 452 520 31,000 600 Climbing FlightAware UK
08:34AM 53.9159 -0.3879 142° Southeast 452 520 31,000  Level FlightAware UK
08:34AM 53.8664 -0.3231 142° Southeast 452 520 31,000  Level FlightAware UK
08:36AM 53.7272 -0.1419 142° Southeast 454 522 31,000  Level FlightAware UK
08:36AM 53.6771 -0.0774 143° Southeast 454 522 31,000  Level FlightAware UK
08:37AM 53.5933 0.0158 147° Southeast 454 522 31,000  Level FlightAware UK
08:38AM 53.5315 0.0887 145° Southeast 456 525 31,000  Level FlightAware UK
08:38AM 53.4842 0.1601 138° Southeast 460 529 31,000  Level FlightAware UK
08:39AM 53.3948 0.3120 135° Southeast 460 529 31,000  Level FlightAware UK
08:40AM 53.3498 0.3873 135° Southeast 460 529 31,000  Level FlightAware UK
08:40AM 53.3045 0.4629 135° Southeast 460 529 31,000  Level FlightAware UK
08:41AM 53.2594 0.5380 135° Southeast 460 529 31,000  Level FlightAware UK
08:42AM 53.1689 0.6881 135° Southeast 460 529 31,000  Level FlightAware UK
08:42AM 53.1054 0.7931 135° Southeast 464 534 31,000  Level FlightAware UK
08:43AM 53.0599 0.8679 135° Southeast 460 529 31,000  Level FlightAware UK
08:43AM 53.0142 0.9428 135° Southeast 460 529 31,000  Level FlightAware UK
08:44AM 52.9913 0.9945 126° Southeast 464 534 31,000  Level FlightAware UK
08:44AM 52.9746 1.0523 116° Southeast 466 536 31,000  Level FlightAware UK
08:44AM 52.9604 1.1563 103° East 464 534 31,000  Level FlightAware UK
08:45AM 52.9481 1.2603 101° East 464 534 31,000  Level FlightAware UK
08:45AM 52.9364 1.3653 100° East 466 536 31,000  Level FlightAware UK
08:46AM 52.9215 1.4916 101° East 464 534 31,000  Level FlightAware UK
08:47AM 52.9089 1.5968 101° East 462 532 31,000  Level FlightAware UK
08:47AM 52.8940 1.7213 101° East 462 532 31,000  Level FlightAware UK
08:48AM 52.8815 1.8250 101° East 462 532 31,000  Level FlightAware UK
08:48AM 52.8691 1.9288 101° East 462 532 31,000 -660 Level FlightAware UK
08:49AM 52.8538 2.0529 102° East 460 529 30,300 -1,920 Descending FlightAware UK
08:49AM 52.8379 2.1768 102° East 454 522 28,700 -2,700 Descending FlightAware UK
08:50AM 52.8231 2.2972 102° East 448 516 27,100 -2,640 Descending FlightAware UK
08:50AM 52.8103 2.3977 102° East 442 509 25,800 -1,800 Descending FlightAware UK
08:51AM 52.7858 2.5906 102° East 428 493 24,400 -1,800 Descending FlightAware UK
08:52AM 52.7710 2.7044 102° East 420 483 23,000 -2,280 Descending FlightAware UK
08:53AM 52.7565 2.8157 102° East 412 474 21,700 -2,160 Descending FlightAware UK
08:53AM 52.7434 2.9430 100° East 400 460 20,200 -2,100 Descending FlightAware UK
08:55AM 52.7281 3.1732 96° East 380 437 17,500 -1,920 Descending FlightAware UK
08:56AM 52.7150 3.4756 94° East 364 419 14,400 -1,740 Descending FlightAware UK
08:57AM 52.7116 3.5749 93° East 358 412 13,400 -1,680 Descending FlightAware UK
08:57AM 52.7092 3.6062 97° East 350 403 13,100 -1,500 Descending FlightAware UK
08:58AM 52.6642 3.7438 118° Southeast 340 391 11,600 -1,500 Descending FlightAware UK
08:59AM 52.6312 3.7970 136° Southeast 326 375 10,900 -1,500 Descending FlightAware UK
09:00AM 52.5812 3.8779 135° Southeast 326 375 9,700 -1,500 Descending FlightAware UK
09:02AM 52.4796 4.2121 116° Southeast  Level Estimated
09:09AM 52.3086 4.7639 117° Southeast  Level Estimated
09:10AM 52.3086 4.7639 North  Level Estimated
09:11AM 52.3086 4.7639 North  Level Estimated
09:12AM 52.3086 4.7639 North  Level Estimated
09:13AM 52.3086 4.7639 North  Level Estimated
09:14AM 52.3086 4.7639 North  Level Estimated
09:15AM 52.3086 4.7639 North  Level Estimated
09:16AM 52.3086 4.7639 North  Level Estimated